createdAt,value
2023-05-14T00:00:17.319Z,94.4274
2023-05-14T00:01:17.321Z,94.7687
2023-05-14T00:02:17.908Z,94.8138
2023-05-14T00:03:18.917Z,94.2880
2023-05-14T00:04:19.840Z,94.8069
2023-05-14T00:05:20.084Z,95.0067
2023-05-14T00:06:20.242Z,95.0746
2023-05-14T00:07:20.556Z,95.1774
2023-05-14T00:08:21.526Z,95.3253
2023-05-14T00:09:22.686Z,94.5764
2023-05-14T00:10:23.545Z,94.4663
2023-05-14T00:11:24.233Z,95.0821
2023-05-14T00:12:24.372Z,95.5072
2023-05-14T00:13:24.660Z,95.6367
2023-05-14T00:14:24.793Z,95.2994
2023-05-14T00:15:25.832Z,94.9249
2023-05-14T00:16:27.152Z,94.7580
2023-05-14T00:17:28.023Z,94.9029
2023-05-14T00:18:28.823Z,94.9297
2023-05-14T00:20:49.517Z,94.9831
2023-05-14T00:28:56.742Z,95.1435
2023-05-14T00:30:56.408Z,95.2814
2023-05-14T00:31:56.357Z,95.5364
2023-05-14T00:32:57.275Z,95.5930
2023-05-14T00:33:58.144Z,95.4657
2023-05-14T00:34:59.520Z,95.4811
2023-05-14T00:36:00.418Z,95.4472
2023-05-14T00:37:01.105Z,95.5595
2023-05-14T00:38:01.593Z,95.5958
2023-05-14T00:39:02.495Z,95.3232
2023-05-14T00:40:03.138Z,95.2151
2023-05-14T00:41:03.512Z,94.9890
2023-05-14T00:45:05.218Z,95.0153
2023-05-14T00:46:05.498Z,95.0398
2023-05-14T00:47:07.273Z,95.1208
2023-05-14T00:48:07.938Z,95.1728
2023-05-14T00:49:08.270Z,95.1328
2023-05-14T00:50:09.275Z,95.2166
2023-05-14T00:51:09.862Z,95.3187
2023-05-14T00:52:09.992Z,95.3139
2023-05-14T00:53:10.149Z,95.3244
2023-05-14T00:54:11.656Z,95.5594
2023-05-14T01:00:16.664Z,95.2000
2023-05-14T01:05:18.474Z,95.1110
2023-05-14T01:14:22.885Z,95.1302
2023-05-14T01:15:23.354Z,95.3683
2023-05-14T01:16:23.838Z,95.5230
2023-05-14T01:17:24.969Z,95.2933
2023-05-14T01:18:24.991Z,95.2259
2023-05-14T01:19:26.197Z,95.1975
2023-05-14T01:20:27.644Z,94.7191
2023-05-14T01:21:27.913Z,94.2498
2023-05-14T01:22:29.119Z,94.2902
2023-05-14T01:35:33.132Z,94.4548
2023-05-14T01:37:33.275Z,94.5511
2023-05-14T01:38:34.218Z,94.6307
2023-05-14T01:40:35.200Z,94.5995
2023-05-14T01:41:36.115Z,94.9248
2023-05-14T01:42:37.250Z,95.0390
2023-05-14T01:43:37.475Z,95.2507
2023-05-14T01:44:37.841Z,95.5356
2023-05-14T01:51:41.113Z,95.0217
2023-05-14T01:59:46.509Z,95.1202
2023-05-14T02:00:46.550Z,95.3870
2023-05-14T02:02:49.765Z,95.6396
2023-05-14T02:03:50.147Z,95.6117
2023-05-14T02:05:53.668Z,95.4697
2023-05-14T02:07:54.512Z,95.9475
2023-05-14T02:08:54.857Z,96.1957
2023-05-14T02:09:56.006Z,96.2055
2023-05-14T02:10:57.047Z,96.0141
2023-05-14T02:11:57.378Z,95.6424
2023-05-14T02:12:57.452Z,95.4313
2023-05-14T02:13:57.829Z,95.2844
2023-05-14T02:14:59.042Z,95.4977
2023-05-14T02:20:02.134Z,95.6801
2023-05-14T02:21:02.938Z,95.7455
2023-05-14T02:22:03.789Z,95.7623
2023-05-14T02:23:03.908Z,95.4021
2023-05-14T02:24:05.174Z,95.4166
2023-05-14T02:25:05.860Z,95.4753
2023-05-14T02:26:06.912Z,95.6038
2023-05-14T02:35:15.101Z,95.4557
2023-05-14T02:36:14.541Z,95.3682
2023-05-14T02:37:14.888Z,95.3086
2023-05-14T02:38:15.533Z,95.3755
2023-05-14T02:39:15.890Z,95.4345
2023-05-14T02:40:16.811Z,95.5702
2023-05-14T02:41:18.317Z,95.7597
2023-05-14T02:42:19.274Z,95.9257
2023-05-14T02:44:20.862Z,96.3029
2023-05-14T02:45:21.324Z,96.5364
2023-05-14T02:46:21.614Z,96.6403
2023-05-14T02:47:22.696Z,96.7031
2023-05-14T02:48:23.393Z,96.7130
2023-05-14T02:49:24.580Z,96.6515
2023-05-14T02:50:25.273Z,96.6742
2023-05-14T02:51:25.468Z,96.6588
2023-05-14T02:52:26.180Z,96.6981
2023-05-14T02:53:26.880Z,96.7087
2023-05-14T02:54:27.433Z,96.7173
2023-05-14T02:55:28.465Z,96.6735
2023-05-14T02:56:29.219Z,96.6969
2023-05-14T02:57:29.320Z,96.7728
2023-05-14T02:58:30.227Z,96.8292
2023-05-14T02:59:30.507Z,96.8061
2023-05-14T03:00:30.539Z,96.7098
2023-05-14T03:01:31.345Z,96.6802
2023-05-14T03:02:32.162Z,96.6986
2023-05-14T03:11:42.262Z,96.6779
2023-05-14T03:13:41.998Z,96.7999
2023-05-14T03:14:43.517Z,96.7926
2023-05-14T03:15:44.774Z,96.5923
2023-05-14T03:16:45.620Z,96.5734
2023-05-14T03:17:46.821Z,96.6816
2023-05-14T03:21:48.335Z,96.7426
2023-05-14T03:22:49.175Z,96.7774
2023-05-14T03:23:49.930Z,96.8870
2023-05-14T03:24:50.183Z,96.9531
2023-05-14T03:25:50.538Z,96.9597
2023-05-14T03:26:51.920Z,97.0253
2023-05-14T03:31:55.725Z,97.2604
2023-05-14T03:42:02.944Z,97.8653
2023-05-14T03:43:03.437Z,97.9177
2023-05-14T03:44:03.657Z,97.9587
2023-05-14T03:45:04.532Z,97.9798
2023-05-14T03:46:05.442Z,98.0120
2023-05-14T03:48:06.331Z,98.0388
2023-05-14T03:49:06.941Z,98.0682
2023-05-14T03:51:06.722Z,98.1539
2023-05-14T03:52:10.597Z,98.1898
2023-05-14T03:54:09.318Z,98.2469
2023-05-14T04:02:13.972Z,98.3863
2023-05-14T04:03:14.707Z,98.3841
2023-05-14T04:04:15.790Z,98.3711
2023-05-14T04:05:17.190Z,98.3759
2023-05-14T04:07:18.093Z,98.3678
2023-05-14T04:08:19.112Z,98.3360
2023-05-14T04:10:20.317Z,98.2460
2023-05-14T04:11:20.547Z,98.1795
2023-05-14T04:12:20.559Z,98.0923
2023-05-14T04:13:22.097Z,98.0122
2023-05-14T04:14:22.815Z,97.9875
2023-05-14T04:18:24.553Z,97.7399
2023-05-14T04:19:24.650Z,97.6687
2023-05-14T04:20:24.886Z,97.4246
2023-05-14T04:21:26.125Z,97.0569
2023-05-14T04:22:26.361Z,96.9331
2023-05-14T04:23:26.604Z,96.7848
2023-05-14T04:24:27.786Z,96.8539
2023-05-14T04:30:32.613Z,96.3081
2023-05-14T04:31:34.567Z,95.8195
2023-05-14T04:35:35.708Z,95.7697
2023-05-14T04:36:36.442Z,96.0406
2023-05-14T04:37:37.129Z,95.7515
2023-05-14T04:38:37.312Z,95.4039
2023-05-14T04:43:40.252Z,95.3828
2023-05-14T04:49:44.212Z,94.3689
2023-05-14T04:50:45.274Z,93.9949
2023-05-14T04:51:46.112Z,93.4425
2023-05-14T04:52:46.802Z,93.6106
2023-05-14T04:53:47.762Z,94.0148
2023-05-14T04:54:47.508Z,94.4042
2023-05-14T04:55:48.448Z,94.6969
2023-05-14T05:01:53.309Z,94.0991
2023-05-14T05:13:02.079Z,91.3344
2023-05-14T05:14:02.749Z,90.4842
2023-05-14T05:16:02.808Z,91.5752
2023-05-14T05:17:03.271Z,91.8077
2023-05-14T05:18:04.807Z,91.8196
2023-05-14T05:19:05.908Z,91.3193
2023-05-14T05:20:06.790Z,91.2512
2023-05-14T05:21:07.254Z,91.6037
2023-05-14T05:28:10.863Z,90.4406
2023-05-14T05:29:11.186Z,89.7501
2023-05-14T05:30:11.783Z,89.6205
2023-05-14T05:31:13.169Z,90.0118
2023-05-14T05:33:13.229Z,89.4106
2023-05-14T05:35:13.941Z,89.3298
2023-05-14T05:36:14.593Z,89.4234
2023-05-14T05:37:15.910Z,89.7257
2023-05-14T05:51:27.929Z,88.4082
2023-05-14T05:52:28.720Z,87.6976
2023-05-14T05:53:29.423Z,87.2816
2023-05-14T05:54:30.054Z,86.8367
2023-05-14T05:55:31.285Z,87.1945
2023-05-14T05:56:32.560Z,86.7169
2023-05-14T05:57:32.623Z,86.5777
2023-05-14T05:58:33.280Z,85.6294
2023-05-14T05:59:34.007Z,84.9659
2023-05-14T06:09:38.585Z,87.7275
2023-05-14T06:10:39.137Z,88.9674
2023-05-14T06:11:39.382Z,89.1010
2023-05-14T06:12:39.965Z,90.2984
2023-05-14T06:13:40.738Z,90.4776
2023-05-14T06:14:41.188Z,89.7706
2023-05-14T06:15:43.053Z,90.3549
2023-05-14T06:16:44.407Z,90.4423
2023-05-14T06:17:44.854Z,90.6041
2023-05-14T06:18:45.803Z,90.8078
2023-05-14T06:19:46.352Z,91.1589
2023-05-14T06:20:46.527Z,90.3652
2023-05-14T06:22:49.843Z,89.9486
2023-05-14T06:23:50.302Z,90.1592
2023-05-14T06:24:50.358Z,90.5669
2023-05-14T06:26:54.662Z,90.7965
2023-05-14T06:27:55.006Z,90.8813
2023-05-14T06:28:55.091Z,90.7695
2023-05-14T06:30:57.474Z,91.2505
2023-05-14T06:31:57.812Z,90.6919
2023-05-14T06:34:01.022Z,91.0950
2023-05-14T06:35:02.108Z,91.0604
2023-05-14T06:37:02.866Z,90.1939
2023-05-14T06:38:02.934Z,90.3633
2023-05-14T06:39:03.690Z,90.9477
2023-05-14T06:40:05.186Z,90.2818
2023-05-14T06:41:05.350Z,89.4852
2023-05-14T06:43:07.611Z,90.6872
2023-05-14T06:48:17.027Z,89.9714
2023-05-14T06:49:17.961Z,90.6299
2023-05-14T06:50:18.883Z,90.3517
2023-05-14T06:54:38.691Z,90.1860
2023-05-14T06:55:39.799Z,90.1119
2023-05-14T06:56:40.053Z,90.2345
2023-05-14T06:57:41.024Z,90.3861
2023-05-14T06:58:42.843Z,90.5340
2023-05-14T07:00:42.978Z,91.1796
2023-05-14T07:01:44.088Z,90.0052
2023-05-14T07:02:45.032Z,89.6458
2023-05-14T07:09:26.055Z,91.6484
2023-05-14T07:10:28.654Z,91.3477
2023-05-14T07:18:08.915Z,91.6579
2023-05-14T07:19:09.746Z,91.7706
2023-05-14T07:20:11.216Z,91.8013
2023-05-14T07:21:11.335Z,92.2226
2023-05-14T07:22:12.969Z,92.8606
2023-05-14T07:23:13.756Z,92.8342
2023-05-14T07:25:14.655Z,92.8274
2023-05-14T07:26:14.711Z,91.7487
2023-05-14T07:27:15.726Z,91.5611
2023-05-14T07:28:17.188Z,91.8451
2023-05-14T07:29:17.237Z,91.4602
2023-05-14T07:30:17.693Z,90.6211
2023-05-14T07:31:19.364Z,89.6274
2023-05-14T07:32:20.246Z,88.4253
2023-05-14T07:36:21.477Z,87.0283
2023-05-14T07:38:22.457Z,86.0181
2023-05-14T07:39:22.758Z,86.3246
2023-05-14T07:40:23.081Z,87.1466
2023-05-14T07:46:25.179Z,85.4278
2023-05-14T07:47:26.518Z,84.8131
2023-05-14T07:48:27.015Z,82.2120
2023-05-14T07:49:27.935Z,81.8021
2023-05-14T07:50:29.142Z,80.7055
2023-05-14T07:51:30.206Z,80.8566
2023-05-14T07:52:31.957Z,79.0636
2023-05-14T07:53:32.585Z,79.2607
2023-05-14T07:54:33.388Z,79.1076
2023-05-14T07:55:34.145Z,75.6022
2023-05-14T07:56:46.949Z,74.5903
2023-05-14T08:06:54.103Z,79.4575
2023-05-14T08:10:56.994Z,79.6981
2023-05-14T08:13:57.140Z,77.0545
2023-05-14T08:14:57.616Z,76.9974
2023-05-14T08:15:57.624Z,76.6486
2023-05-14T08:16:58.854Z,78.6811
2023-05-14T08:17:59.454Z,78.1635
2023-05-14T08:19:00.497Z,79.2977
2023-05-14T08:20:01.839Z,80.2858
2023-05-14T08:21:05.408Z,81.5359
2023-05-14T08:22:06.196Z,78.5538
2023-05-14T08:23:07.412Z,77.5831
2023-05-14T08:25:10.066Z,77.6354
2023-05-14T08:26:10.436Z,76.9162
2023-05-14T08:29:46.208Z,82.7048
2023-05-14T08:30:46.630Z,81.4777
2023-05-14T08:31:46.858Z,81.2832
2023-05-14T08:32:47.489Z,81.2854
2023-05-14T08:33:48.502Z,82.3102
2023-05-14T08:34:50.003Z,81.9705
2023-05-14T08:36:55.195Z,81.2590
2023-05-14T08:37:55.678Z,81.1988
2023-05-14T08:38:56.018Z,81.8893
2023-05-14T08:39:56.454Z,81.8988
2023-05-14T08:40:56.939Z,80.6259
2023-05-14T08:41:57.801Z,79.0418
2023-05-14T08:42:58.951Z,79.2276
2023-05-14T08:43:59.736Z,78.7973
2023-05-14T08:45:00.781Z,79.8752
2023-05-14T08:46:01.897Z,79.5643
2023-05-14T08:47:02.246Z,79.4819
2023-05-14T08:48:04.863Z,78.7238
2023-05-14T08:50:03.718Z,79.3230
2023-05-14T08:51:04.191Z,79.9823
2023-05-14T08:52:04.948Z,79.8413
2023-05-14T08:53:05.528Z,78.2998
2023-05-14T08:54:05.723Z,78.8007
2023-05-14T08:55:06.651Z,76.8066
2023-05-14T08:56:06.526Z,77.0992
2023-05-14T08:57:07.012Z,76.7660
2023-05-14T09:05:14.789Z,73.8590
2023-05-14T09:06:15.580Z,72.3045
2023-05-14T09:07:16.249Z,71.5653
2023-05-14T09:09:04.183Z,72.6352
2023-05-14T09:10:04.608Z,74.3487
2023-05-14T09:11:06.628Z,74.6831
2023-05-14T09:12:07.477Z,74.4257
2023-05-14T09:13:08.683Z,74.8838
2023-05-14T09:14:09.880Z,72.6525
2023-05-14T09:15:10.941Z,72.9919
2023-05-14T09:16:12.466Z,73.1801
2023-05-14T09:17:12.255Z,73.5525
2023-05-14T09:18:13.495Z,74.7232
2023-05-14T09:19:14.227Z,74.0187
2023-05-14T09:20:15.167Z,73.3106
2023-05-14T09:24:04.407Z,77.2281
2023-05-14T09:30:09.629Z,78.3369
2023-05-14T09:31:09.740Z,78.1423
2023-05-14T09:33:09.799Z,79.9666
2023-05-14T09:35:10.686Z,80.9932
2023-05-14T09:36:11.969Z,81.4629
2023-05-14T09:37:12.892Z,80.6344
2023-05-14T09:43:22.971Z,78.7004
2023-05-14T09:46:26.617Z,76.4795
2023-05-14T09:47:26.917Z,76.4707
2023-05-14T09:48:26.985Z,77.1893
2023-05-14T09:49:27.810Z,77.1249
2023-05-14T09:51:29.033Z,75.4051
2023-05-14T09:52:29.700Z,75.6976
2023-05-14T09:53:30.756Z,76.6706
2023-05-14T09:57:58.389Z,79.5250
2023-05-14T09:58:58.897Z,80.7785
2023-05-14T10:00:00.001Z,80.3107
2023-05-14T10:01:01.078Z,80.5303
2023-05-14T10:02:02.260Z,81.8820
2023-05-14T10:03:02.262Z,82.2186
2023-05-14T10:04:04.057Z,81.4266
2023-05-14T10:05:05.262Z,81.6472
2023-05-14T10:06:05.399Z,80.1050
2023-05-14T10:07:06.413Z,81.0971
2023-05-14T10:08:06.792Z,82.4661
2023-05-14T10:09:07.405Z,82.5118
2023-05-14T10:10:08.514Z,82.3233
2023-05-14T10:12:09.651Z,82.3236
2023-05-14T10:13:10.601Z,81.4440
2023-05-14T10:16:41.015Z,81.5296
2023-05-14T10:17:41.149Z,82.4522
2023-05-14T10:18:42.303Z,81.0945
2023-05-14T10:19:43.166Z,79.9846
2023-05-14T10:20:44.306Z,80.6497
2023-05-14T10:21:45.144Z,80.9385
2023-05-14T10:22:45.408Z,80.6210
2023-05-14T10:29:25.077Z,79.2264
2023-05-14T10:30:26.446Z,79.6219
2023-05-14T10:31:26.430Z,79.5091
2023-05-14T10:32:27.166Z,80.3758
2023-05-14T10:33:27.679Z,81.5491
2023-05-14T10:34:29.008Z,80.6071
2023-05-14T10:35:30.244Z,81.4574
2023-05-14T10:36:31.102Z,80.0099
2023-05-14T10:37:31.752Z,81.8874
2023-05-14T10:42:20.660Z,79.9828
2023-05-14T10:51:07.710Z,77.6583
2023-05-14T10:52:07.749Z,77.2740
2023-05-14T10:53:08.717Z,75.5581
2023-05-14T10:54:09.123Z,75.6810
2023-05-14T10:55:10.404Z,73.8093
2023-05-14T10:56:10.629Z,76.0342
2023-05-14T10:57:11.346Z,76.3317
2023-05-14T10:58:11.531Z,76.4663
2023-05-14T10:59:12.615Z,75.3679
2023-05-14T11:00:13.273Z,75.3574
2023-05-14T11:01:13.329Z,74.8496
2023-05-14T11:02:15.901Z,75.4833
2023-05-14T11:06:40.378Z,72.5915
2023-05-14T11:10:41.680Z,66.6733
2023-05-14T11:11:42.771Z,67.3288
2023-05-14T11:12:43.440Z,65.0549
2023-05-14T11:13:44.244Z,65.6880
2023-05-14T11:18:48.534Z,69.2166
2023-05-14T11:19:50.461Z,68.1429
2023-05-14T11:31:31.454Z,78.7810
2023-05-14T11:32:31.719Z,80.0172
2023-05-14T11:33:33.341Z,79.6469
2023-05-14T11:34:33.322Z,78.6463
2023-05-14T11:35:34.284Z,78.0052
2023-05-14T11:36:36.277Z,77.9988
2023-05-14T11:38:36.441Z,78.0471
2023-05-14T11:41:39.737Z,75.5608
2023-05-14T11:43:45.782Z,74.6035
2023-05-14T11:48:53.674Z,73.9064
2023-05-14T11:49:53.924Z,74.5480
2023-05-14T11:51:29.098Z,75.3666
2023-05-14T11:53:33.493Z,76.6935
2023-05-14T11:55:31.290Z,74.1492
2023-05-14T11:58:32.230Z,74.2086
2023-05-14T11:59:33.201Z,73.0700
2023-05-14T12:01:34.298Z,73.6349
2023-05-14T12:02:35.234Z,72.0603
2023-05-14T12:03:35.821Z,71.2429
2023-05-14T12:04:35.482Z,71.4652
2023-05-14T12:05:36.148Z,72.8494
2023-05-14T12:06:38.167Z,72.4198
2023-05-14T12:07:37.924Z,72.7507
2023-05-14T12:12:40.472Z,76.6379
2023-05-14T12:13:41.867Z,75.7941
2023-05-14T12:14:42.592Z,76.9312
2023-05-14T12:21:54.434Z,83.3038
2023-05-14T12:22:55.209Z,83.7986
2023-05-14T12:23:55.923Z,84.1272
2023-05-14T12:24:57.145Z,84.6867
2023-05-14T12:25:57.719Z,84.8385
2023-05-14T12:26:58.028Z,85.0418
2023-05-14T12:27:58.380Z,85.7119
2023-05-14T12:28:59.170Z,85.3689
2023-05-14T12:30:09.203Z,85.8871
2023-05-14T12:31:00.486Z,86.6974
2023-05-14T12:33:02.928Z,86.8463
2023-05-14T12:34:04.087Z,86.7829
2023-05-14T12:36:20.746Z,87.9326
2023-05-14T12:37:07.549Z,87.9409
2023-05-14T12:38:07.682Z,88.1941
2023-05-14T12:39:08.894Z,88.7329
2023-05-14T12:40:10.353Z,88.8502
2023-05-14T12:41:11.491Z,89.8029
2023-05-14T12:42:12.172Z,88.7978
2023-05-14T12:43:12.506Z,89.4605
2023-05-14T12:45:13.720Z,89.9559
2023-05-14T12:49:17.886Z,88.5725
2023-05-14T12:51:19.740Z,87.8644
2023-05-14T12:53:24.058Z,90.0411
2023-05-14T12:56:25.357Z,88.6097
2023-05-14T12:58:26.328Z,88.5852
2023-05-14T12:59:26.587Z,88.7604
2023-05-14T13:00:26.922Z,88.8872
2023-05-14T13:01:27.608Z,88.8308
2023-05-14T13:02:28.637Z,87.4959
2023-05-14T13:03:29.138Z,86.2846
2023-05-14T13:04:30.438Z,85.8361
2023-05-14T13:05:31.541Z,85.9440
2023-05-14T13:06:32.491Z,86.1078
2023-05-14T13:07:32.957Z,85.4863
2023-05-14T13:08:33.400Z,86.6674
2023-05-14T13:09:33.980Z,86.0149
2023-05-14T13:10:34.598Z,86.0137
2023-05-14T13:17:42.272Z,82.2618
2023-05-14T13:19:42.870Z,83.1914
2023-05-14T13:20:43.482Z,83.0762
2023-05-14T13:21:44.105Z,82.3488
2023-05-14T13:22:44.853Z,83.6674
2023-05-14T13:24:46.768Z,81.9867
2023-05-14T13:27:47.396Z,81.5826
2023-05-14T13:29:48.274Z,80.5122
2023-05-14T13:36:53.498Z,81.4089
2023-05-14T13:37:54.516Z,80.6863
2023-05-14T13:38:55.648Z,79.5455
2023-05-14T13:39:55.921Z,79.0956
2023-05-14T13:40:56.322Z,79.3620
2023-05-14T13:41:56.628Z,79.2070
2023-05-14T13:42:57.701Z,78.9469
2023-05-14T13:43:58.388Z,77.4745
2023-05-14T13:45:58.741Z,76.7725
2023-05-14T13:46:58.944Z,76.8892
2023-05-14T13:47:59.526Z,77.2508
2023-05-14T13:48:59.625Z,77.2797
2023-05-14T13:50:00.865Z,75.1643
2023-05-14T13:51:02.019Z,75.6391
2023-05-14T13:52:02.447Z,76.7858
2023-05-14T13:53:03.301Z,77.7422
2023-05-14T13:54:04.301Z,79.8264
2023-05-14T13:55:04.976Z,79.0745
2023-05-14T13:56:05.321Z,79.3420
2023-05-14T13:57:06.434Z,77.9424
2023-05-14T13:58:06.861Z,76.6490
2023-05-14T13:59:06.689Z,74.9485
2023-05-14T14:00:07.354Z,73.7560
2023-05-14T14:01:07.701Z,73.6210
2023-05-14T14:03:08.775Z,73.4162
2023-05-14T14:04:09.603Z,69.8062
2023-05-14T14:05:10.144Z,69.5810
2023-05-14T14:06:10.472Z,70.9455
2023-05-14T14:07:11.301Z,71.6034
2023-05-14T14:08:23.473Z,70.7512
2023-05-14T14:09:19.039Z,68.8929
2023-05-14T14:12:20.772Z,71.5548
2023-05-14T14:13:21.778Z,72.6621
2023-05-14T14:14:20.932Z,72.8910
2023-05-14T14:15:20.937Z,73.3692
2023-05-14T14:16:22.129Z,73.9279
2023-05-14T14:17:23.109Z,72.4334
2023-05-14T14:25:28.709Z,71.6814
2023-05-14T14:26:28.718Z,72.2516
2023-05-14T14:27:29.449Z,71.6163
2023-05-14T14:28:29.759Z,71.7479
2023-05-14T14:29:29.853Z,71.7772
2023-05-14T14:30:30.958Z,72.8767
2023-05-14T14:31:31.860Z,72.4008
2023-05-14T14:32:33.058Z,71.6884
2023-05-14T14:33:33.480Z,73.1144
2023-05-14T14:34:34.567Z,73.8782
2023-05-14T14:35:35.329Z,74.1797
2023-05-14T14:36:35.785Z,74.6976
2023-05-14T14:37:37.340Z,74.4104
2023-05-14T14:44:39.665Z,76.4079
2023-05-14T14:45:40.014Z,75.1425
2023-05-14T14:46:41.032Z,75.2914
2023-05-14T14:47:42.171Z,76.0819
2023-05-14T14:48:42.501Z,75.8387
2023-05-14T14:49:43.372Z,76.4171
2023-05-14T14:50:43.824Z,76.8065
2023-05-14T14:51:45.472Z,78.2815
2023-05-14T14:52:46.742Z,79.8602
2023-05-14T14:53:47.152Z,81.0185
2023-05-14T14:54:47.356Z,82.8840
2023-05-14T14:55:48.613Z,83.6849
2023-05-14T14:56:49.833Z,84.3234
2023-05-14T14:57:51.061Z,85.2509
2023-05-14T14:58:51.011Z,86.5796
2023-05-14T14:59:51.059Z,87.2640
2023-05-14T15:00:52.163Z,88.4453
2023-05-14T15:01:52.667Z,88.2951
2023-05-14T15:02:52.930Z,89.6603
2023-05-14T15:03:54.010Z,88.2143
2023-05-14T15:04:54.753Z,88.5240
2023-05-14T15:05:55.498Z,88.4782
2023-05-14T15:06:55.902Z,89.4581
2023-05-14T15:07:56.360Z,89.9259
2023-05-14T15:08:57.465Z,89.6551
2023-05-14T15:09:58.014Z,90.3505
2023-05-14T15:10:58.208Z,90.1912
2023-05-14T15:11:58.437Z,90.9732
2023-05-14T15:12:58.534Z,90.9032
2023-05-14T15:13:59.154Z,91.2862
2023-05-14T15:14:59.615Z,91.5296
2023-05-14T15:16:00.701Z,91.5541
2023-05-14T15:17:01.240Z,92.2112
2023-05-14T15:18:02.418Z,92.7238
2023-05-14T15:19:02.691Z,93.4587
2023-05-14T15:20:03.305Z,93.4691
2023-05-14T15:21:04.445Z,93.8053
2023-05-14T15:22:04.440Z,93.6264
2023-05-14T15:23:05.124Z,93.5539
2023-05-14T15:24:05.786Z,92.9304
2023-05-14T15:25:05.997Z,93.7723
2023-05-14T15:26:06.025Z,94.4467
2023-05-14T15:27:07.096Z,94.6344
2023-05-14T15:28:08.216Z,94.8120
2023-05-14T15:29:08.455Z,95.5064
2023-05-14T15:30:09.203Z,95.8088
2023-05-14T15:31:10.253Z,95.6072
2023-05-14T15:32:11.610Z,95.7929
2023-05-14T15:33:12.387Z,95.3124
2023-05-14T15:34:14.053Z,94.7004
2023-05-14T15:35:13.751Z,92.4438
2023-05-14T15:36:14.213Z,89.4058
2023-05-14T15:37:14.290Z,90.3760
2023-05-14T15:38:15.311Z,92.0365
2023-05-14T15:39:15.696Z,93.7357
2023-05-14T15:40:16.000Z,93.1518
2023-05-14T15:41:17.366Z,93.1133
2023-05-14T15:43:18.195Z,91.9243
2023-05-14T15:45:20.945Z,92.1479
2023-05-14T15:46:22.054Z,93.8186
2023-05-14T15:47:22.791Z,92.7722
2023-05-14T15:48:23.848Z,92.8268
2023-05-14T15:49:24.193Z,93.2918
2023-05-14T15:50:25.276Z,93.6387
2023-05-14T15:51:25.122Z,93.9945
2023-05-14T15:52:26.116Z,93.8216
2023-05-14T15:53:26.977Z,93.6789
2023-05-14T15:54:27.835Z,93.8576
2023-05-14T15:55:28.098Z,93.5181
2023-05-14T15:56:28.931Z,94.0356
2023-05-14T15:57:29.790Z,93.7370
2023-05-14T15:58:29.856Z,93.3289
2023-05-14T15:59:30.890Z,92.8726
2023-05-14T16:00:32.024Z,92.9609
2023-05-14T16:01:32.556Z,92.7646
2023-05-14T16:02:33.449Z,92.7103
2023-05-14T16:03:34.067Z,92.8277
2023-05-14T16:04:34.371Z,92.7642
2023-05-14T16:05:35.517Z,91.3185
2023-05-14T16:06:36.278Z,91.7541
2023-05-14T16:07:37.534Z,91.9576
2023-05-14T16:08:38.275Z,92.4265
2023-05-14T16:09:38.778Z,92.6116
2023-05-14T16:10:39.668Z,91.4574
2023-05-14T16:11:39.885Z,91.4563
2023-05-14T16:12:40.790Z,91.7604
2023-05-14T16:14:42.079Z,93.8138
2023-05-14T16:16:42.776Z,94.4375
2023-05-14T16:17:44.504Z,92.6615
2023-05-14T16:18:45.368Z,92.6898
2023-05-14T16:19:45.783Z,93.3955
2023-05-14T16:20:46.731Z,93.7177
2023-05-14T16:21:47.211Z,95.0074
2023-05-14T16:22:47.841Z,95.9431
2023-05-14T16:23:48.648Z,96.3757
2023-05-14T16:24:49.149Z,96.4429
2023-05-14T16:25:50.498Z,96.3986
2023-05-14T16:27:50.759Z,95.9742
2023-05-14T16:28:52.335Z,95.6646
2023-05-14T16:29:52.762Z,95.9814
2023-05-14T16:30:53.926Z,96.2491
2023-05-14T16:31:54.946Z,96.3898
2023-05-14T16:32:56.051Z,96.5462
2023-05-14T16:33:57.194Z,96.6254
2023-05-14T16:34:57.652Z,96.7091
2023-05-14T16:35:58.169Z,96.7737
2023-05-14T16:38:00.089Z,96.8129
2023-05-14T16:39:07.314Z,96.8382
2023-05-14T16:40:03.325Z,96.9745
2023-05-14T16:41:03.843Z,97.0793
2023-05-14T16:42:03.932Z,97.1536
2023-05-14T16:43:04.809Z,97.2213
2023-05-14T16:44:05.044Z,97.3554
2023-05-14T16:45:05.805Z,97.4558
2023-05-14T16:46:06.497Z,97.5536
2023-05-14T16:47:07.231Z,97.5967
2023-05-14T16:49:08.146Z,97.5586
2023-05-14T16:52:09.814Z,97.0941
2023-05-14T16:53:10.128Z,96.6431
2023-05-14T16:54:10.276Z,96.4662
2023-05-14T16:57:13.330Z,96.6094
2023-05-14T16:58:14.193Z,96.5789
2023-05-14T16:59:15.334Z,96.7080
2023-05-14T17:00:16.442Z,96.7572
2023-05-14T17:01:17.833Z,96.7997
2023-05-14T17:02:18.638Z,96.8733
2023-05-14T17:03:18.681Z,96.9326
2023-05-14T17:04:19.321Z,97.1197
2023-05-14T17:05:19.690Z,97.2507
2023-05-14T17:06:20.564Z,97.3847
2023-05-14T17:07:21.362Z,97.4937
2023-05-14T17:08:22.681Z,97.5332
2023-05-14T17:09:24.115Z,97.6055
2023-05-14T17:10:24.450Z,97.6985
2023-05-14T17:11:25.543Z,97.7889
2023-05-14T17:12:25.746Z,97.8407
2023-05-14T17:15:28.129Z,97.9499
2023-05-14T17:16:27.870Z,97.9739
2023-05-14T17:17:28.761Z,97.9961
2023-05-14T17:19:29.431Z,97.9178
2023-05-14T17:20:29.911Z,97.9201
2023-05-14T17:22:32.389Z,97.8817
2023-05-14T17:23:32.565Z,97.9131
2023-05-14T17:24:32.630Z,97.9183
2023-05-14T17:25:33.398Z,97.9175
2023-05-14T17:27:36.861Z,97.7658
2023-05-14T17:28:38.013Z,97.7310
2023-05-14T17:29:39.351Z,97.7507
2023-05-14T17:30:39.416Z,97.7476
2023-05-14T17:31:40.269Z,97.8135
2023-05-14T17:32:41.621Z,97.8886
2023-05-14T17:33:42.600Z,97.9325
2023-05-14T17:34:43.595Z,97.9542
2023-05-14T17:35:44.463Z,97.9340
2023-05-14T17:36:44.371Z,97.9513
2023-05-14T17:37:45.120Z,97.9579
2023-05-14T17:38:47.508Z,97.9495
2023-05-14T17:48:53.030Z,96.4701
2023-05-14T17:49:53.201Z,96.3397
2023-05-14T17:50:54.249Z,96.3409
2023-05-14T17:51:55.167Z,96.8155
2023-05-14T17:52:56.789Z,97.1632
2023-05-14T17:53:56.383Z,97.3613
2023-05-14T17:54:57.246Z,97.4026
2023-05-14T17:55:57.346Z,97.4449
2023-05-14T17:56:58.110Z,97.4863
2023-05-14T17:57:59.321Z,97.5212
2023-05-14T17:59:00.055Z,97.4939
2023-05-14T18:00:01.183Z,97.4604
2023-05-14T18:01:01.301Z,97.4427
2023-05-14T18:02:01.942Z,97.4105
2023-05-14T18:03:02.360Z,97.3716
2023-05-14T18:04:02.549Z,97.3967
2023-05-14T18:05:02.998Z,97.5125
2023-05-14T18:06:03.592Z,97.6325
2023-05-14T18:07:04.522Z,97.6685
2023-05-14T18:08:05.957Z,97.6642
2023-05-14T18:09:07.105Z,97.7284
2023-05-14T18:10:07.167Z,97.7467
2023-05-14T18:11:07.917Z,97.6046
2023-05-14T18:12:08.697Z,97.5193
2023-05-14T18:13:09.675Z,97.4742
2023-05-14T18:14:11.055Z,97.5300
2023-05-14T18:15:11.328Z,97.5306
2023-05-14T18:16:12.015Z,97.5113
2023-05-14T18:17:12.367Z,97.2785
2023-05-14T18:18:12.655Z,97.3426
2023-05-14T18:19:13.387Z,97.4336
2023-05-14T18:20:13.487Z,97.4042
2023-05-14T18:21:14.830Z,97.4839
2023-05-14T18:23:15.340Z,97.5286
2023-05-14T18:24:16.039Z,97.5126
2023-05-14T18:25:16.636Z,97.5112
2023-05-14T18:26:18.008Z,97.5120
2023-05-14T18:28:19.014Z,97.3284
2023-05-14T18:29:19.918Z,97.4462
2023-05-14T18:30:20.327Z,97.4738
2023-05-14T18:31:21.041Z,97.5281
2023-05-14T18:32:21.202Z,97.6106
2023-05-14T18:42:12.675Z,98.4812
2023-05-14T18:43:13.708Z,98.5213
2023-05-14T18:44:13.862Z,98.5455
2023-05-14T18:45:14.512Z,98.5709
2023-05-14T18:46:16.056Z,98.5895
2023-05-14T18:47:17.084Z,98.6158
2023-05-14T18:48:17.150Z,98.6396
2023-05-14T18:49:18.397Z,98.6559
2023-05-14T18:50:19.269Z,98.6893
2023-05-14T18:51:19.374Z,98.7428
2023-05-14T18:52:20.435Z,98.7778
2023-05-14T18:53:22.302Z,98.7949
2023-05-14T18:58:26.618Z,98.9001
2023-05-14T18:59:26.904Z,98.9289
2023-05-14T19:01:27.801Z,98.9641
2023-05-14T19:04:33.135Z,99.0271
2023-05-14T19:05:31.141Z,99.0463
2023-05-14T19:11:35.279Z,99.1528
2023-05-14T19:12:35.509Z,99.1670
2023-05-14T19:14:38.572Z,99.1912
2023-05-14T19:15:38.721Z,99.2049
2023-05-14T19:16:39.995Z,99.2102
2023-05-14T19:17:42.078Z,99.2298
2023-05-14T19:18:42.729Z,99.2325